createdAt,value
2023-05-19T00:01:05.622Z,3.00
2023-05-19T00:03:34.400Z,3.63
2023-05-19T00:06:03.972Z,2.20
2023-05-19T00:08:34.880Z,2.45
2023-05-19T00:11:03.273Z,2.40
2023-05-19T00:13:31.745Z,4.90
2023-05-19T00:16:00.301Z,3.08
2023-05-19T00:18:29.721Z,2.22
2023-05-19T00:20:57.742Z,2.50
2023-05-19T00:23:25.901Z,3.28
2023-05-19T00:25:55.240Z,3.40
2023-05-19T00:28:23.149Z,3.03
2023-05-19T00:30:52.514Z,2.90
2023-05-19T00:33:20.508Z,2.75
2023-05-19T00:35:48.562Z,3.08
2023-05-19T00:38:16.657Z,2.97
2023-05-19T00:40:44.680Z,2.88
2023-05-19T00:43:14.649Z,2.45
2023-05-19T00:45:42.677Z,2.50
2023-05-19T00:48:10.690Z,2.30
2023-05-19T00:50:38.812Z,2.53
2023-05-19T00:53:06.879Z,3.47
2023-05-19T00:55:36.737Z,3.33
2023-05-19T00:58:09.706Z,3.05
2023-05-19T01:00:40.828Z,2.80
2023-05-19T01:03:11.821Z,2.10
2023-05-19T01:05:41.913Z,2.70
2023-05-19T01:08:10.574Z,2.85
2023-05-19T01:10:38.833Z,2.30
2023-05-19T01:13:08.053Z,3.00
2023-05-19T01:15:57.407Z,2.88
2023-05-19T01:18:33.219Z,2.50
2023-05-19T01:21:25.859Z,2.70
2023-05-19T01:24:09.149Z,3.72
2023-05-19T01:27:02.693Z,1.50
2023-05-19T01:29:43.976Z,3.00
2023-05-19T01:32:15.957Z,2.95
2023-05-19T01:34:46.832Z,2.13
2023-05-19T01:37:17.205Z,2.75
2023-05-19T01:39:47.579Z,2.08
2023-05-19T01:42:16.633Z,2.40
2023-05-19T01:45:06.086Z,3.40
2023-05-19T01:47:38.275Z,2.17
2023-05-19T01:50:07.362Z,2.78
2023-05-19T01:52:35.491Z,2.72
2023-05-19T01:55:03.471Z,2.08
2023-05-19T01:57:42.084Z,1.90
2023-05-19T02:00:18.185Z,2.88
2023-05-19T02:03:01.121Z,2.30
2023-05-19T02:05:53.186Z,2.50
2023-05-19T02:08:35.132Z,2.10
2023-05-19T02:11:08.327Z,2.70
2023-05-19T02:13:42.666Z,1.75
2023-05-19T02:16:13.772Z,2.80
2023-05-19T02:18:45.468Z,2.35
2023-05-19T02:21:13.709Z,1.40
2023-05-19T02:23:44.963Z,1.48
2023-05-19T02:26:13.139Z,2.72
2023-05-19T02:28:41.362Z,2.05
2023-05-19T02:31:10.194Z,2.90
2023-05-19T02:33:39.462Z,3.05
2023-05-19T02:36:08.947Z,1.80
2023-05-19T02:38:36.928Z,1.65
2023-05-19T02:41:04.898Z,1.65
2023-05-19T02:43:32.882Z,2.85
2023-05-19T02:46:00.915Z,2.17
2023-05-19T02:48:28.908Z,2.20
2023-05-19T02:50:58.209Z,2.05
2023-05-19T02:53:26.194Z,2.28
2023-05-19T02:55:54.172Z,3.25
2023-05-19T02:58:22.146Z,2.78
2023-05-19T03:00:50.105Z,1.95
2023-05-19T03:03:18.132Z,2.65
2023-05-19T03:05:46.160Z,3.80
2023-05-19T03:08:15.454Z,1.80
2023-05-19T03:10:43.429Z,1.48
2023-05-19T03:13:11.406Z,2.60
2023-05-19T03:15:39.404Z,2.25
2023-05-19T03:18:07.460Z,1.85
2023-05-19T03:20:41.584Z,1.90
2023-05-19T03:23:10.226Z,2.20
2023-05-19T03:25:39.494Z,2.42
2023-05-19T03:28:07.428Z,2.72
2023-05-19T03:30:35.429Z,2.78
2023-05-19T03:33:09.966Z,2.60
2023-05-19T03:35:38.177Z,3.35
2023-05-19T03:38:06.544Z,2.20
2023-05-19T03:40:34.693Z,2.42
2023-05-19T03:43:08.588Z,2.72
2023-05-19T03:45:46.780Z,4.63
2023-05-19T03:48:33.672Z,2.40
2023-05-19T03:51:24.781Z,2.92
2023-05-19T03:53:59.108Z,1.50
2023-05-19T03:56:27.639Z,3.55
2023-05-19T03:58:56.956Z,1.50
2023-05-19T04:01:24.916Z,1.98
2023-05-19T04:03:57.106Z,1.92
2023-05-19T04:06:25.118Z,2.83
2023-05-19T04:08:56.268Z,2.25
2023-05-19T04:11:24.198Z,3.80
2023-05-19T04:13:52.984Z,1.40
2023-05-19T04:16:22.411Z,2.60
2023-05-19T04:18:51.124Z,3.50
2023-05-19T04:21:25.246Z,3.63
2023-05-19T04:24:06.342Z,3.28
2023-05-19T04:26:42.448Z,3.15
2023-05-19T04:29:10.774Z,2.50
2023-05-19T04:31:41.215Z,1.88
2023-05-19T04:34:11.847Z,1.90
2023-05-19T04:36:41.633Z,3.17
2023-05-19T04:39:12.183Z,2.05
2023-05-19T04:41:44.768Z,2.67
2023-05-19T04:44:13.493Z,2.40
2023-05-19T04:46:45.113Z,3.05
2023-05-19T04:49:14.046Z,2.65
2023-05-19T04:51:42.656Z,1.88
2023-05-19T04:54:10.949Z,2.10
2023-05-19T04:56:39.038Z,1.98
2023-05-19T04:59:07.272Z,2.78
2023-05-19T05:01:40.116Z,2.72
2023-05-19T05:04:11.255Z,2.42
2023-05-19T05:09:30.228Z,2.05
2023-05-19T05:12:00.940Z,2.67
2023-05-19T05:14:29.473Z,2.60
2023-05-19T05:16:58.576Z,2.60
2023-05-19T05:19:43.930Z,1.52
2023-05-19T05:22:12.538Z,2.70
2023-05-19T05:24:43.450Z,2.00
2023-05-19T05:27:20.262Z,1.80
2023-05-19T05:32:17.291Z,2.28
2023-05-19T05:34:53.145Z,2.50
2023-05-19T05:37:21.118Z,3.95
2023-05-19T05:39:49.127Z,2.38
2023-05-19T05:42:17.131Z,1.85
2023-05-19T05:44:45.487Z,2.42
2023-05-19T05:47:15.352Z,1.73
2023-05-19T05:49:45.910Z,2.35
2023-05-19T05:52:22.085Z,2.28
2023-05-19T05:54:50.783Z,1.80
2023-05-19T05:57:20.961Z,2.72
2023-05-19T05:59:48.911Z,3.13
2023-05-19T06:02:16.983Z,2.25
2023-05-19T06:04:45.225Z,2.60
2023-05-19T06:07:13.486Z,2.92
2023-05-19T06:09:46.380Z,2.33
2023-05-19T06:12:15.853Z,2.03
2023-05-19T06:14:48.277Z,1.92
2023-05-19T06:17:36.289Z,2.65
2023-05-19T06:20:06.163Z,2.03
2023-05-19T06:22:34.189Z,2.85
2023-05-19T06:25:05.740Z,2.70
2023-05-19T06:27:38.008Z,1.77
2023-05-19T06:30:10.384Z,1.77
2023-05-19T06:32:49.293Z,2.90
2023-05-19T06:35:17.490Z,1.75
2023-05-19T06:37:45.466Z,2.10
2023-05-19T06:40:15.236Z,2.50
2023-05-19T06:42:44.216Z,1.85
2023-05-19T06:45:24.870Z,1.95
2023-05-19T06:47:58.354Z,1.50
2023-05-19T06:50:27.207Z,1.25
2023-05-19T06:52:57.217Z,1.80
2023-05-19T06:55:27.317Z,2.22
2023-05-19T06:57:58.342Z,1.58
2023-05-19T07:00:26.902Z,2.13
2023-05-19T07:02:58.028Z,2.10
2023-05-19T07:05:25.997Z,2.47
2023-05-19T07:07:57.752Z,2.20
2023-05-19T07:10:30.405Z,2.15
2023-05-19T07:12:58.710Z,1.55
2023-05-19T07:15:30.098Z,2.70
2023-05-19T07:18:02.564Z,2.75
2023-05-19T07:20:35.872Z,1.77
2023-05-19T07:23:05.282Z,1.60
2023-05-19T07:25:38.562Z,1.40
2023-05-19T07:28:06.534Z,1.55
2023-05-19T07:30:34.762Z,3.10
2023-05-19T07:33:03.034Z,2.17
2023-05-19T07:35:31.231Z,2.63
2023-05-19T07:37:59.258Z,1.92
2023-05-19T07:40:27.213Z,2.80
2023-05-19T07:42:56.477Z,3.03
2023-05-19T07:45:24.396Z,2.28
2023-05-19T07:47:55.008Z,1.58
2023-05-19T07:50:24.554Z,1.40
2023-05-19T07:52:52.614Z,1.75
2023-05-19T07:55:23.118Z,1.80
2023-05-19T07:57:51.213Z,2.00
2023-05-19T08:00:21.067Z,1.63
2023-05-19T08:02:49.074Z,1.90
2023-05-19T08:05:17.239Z,1.90
2023-05-19T08:07:45.327Z,2.22
2023-05-19T08:10:13.286Z,2.30
2023-05-19T08:12:41.506Z,2.03
2023-05-19T08:15:11.646Z,2.35
2023-05-19T08:17:40.969Z,1.20
2023-05-19T08:20:11.339Z,2.65
2023-05-19T08:22:39.691Z,1.63
2023-05-19T08:25:08.137Z,1.63
2023-05-19T08:27:37.361Z,1.85
2023-05-19T08:30:06.207Z,2.13
2023-05-19T08:32:36.877Z,2.00
2023-05-19T08:35:07.600Z,1.73
2023-05-19T08:37:37.088Z,1.95
2023-05-19T08:40:06.029Z,1.70
2023-05-19T08:42:34.374Z,2.38
2023-05-19T08:45:03.523Z,1.88
2023-05-19T08:47:34.762Z,1.83
2023-05-19T08:50:09.862Z,2.20
2023-05-19T08:52:50.240Z,2.03
2023-05-19T08:55:31.075Z,1.90
2023-05-19T08:57:59.897Z,1.33
2023-05-19T09:00:29.483Z,2.03
2023-05-19T09:03:01.403Z,1.17
2023-05-19T09:05:47.200Z,1.77
2023-05-19T09:08:15.204Z,1.40
2023-05-19T09:10:43.173Z,1.70
2023-05-19T09:13:11.104Z,2.10
2023-05-19T09:15:41.280Z,1.33
2023-05-19T09:18:11.128Z,1.55
2023-05-19T09:20:40.647Z,1.20
2023-05-19T09:23:14.641Z,1.88
2023-05-19T09:25:53.991Z,3.15
2023-05-19T09:28:26.000Z,2.35
2023-05-19T09:31:07.762Z,1.63
2023-05-19T09:33:39.345Z,2.15
2023-05-19T09:36:10.749Z,2.50
2023-05-19T09:38:40.517Z,2.78
2023-05-19T09:41:14.201Z,1.40
2023-05-19T09:43:43.277Z,1.38
2023-05-19T09:46:13.744Z,1.90
2023-05-19T09:48:43.783Z,2.25
2023-05-19T09:51:13.872Z,1.33
2023-05-19T09:53:50.078Z,2.42
2023-05-19T09:56:23.938Z,1.02
2023-05-19T09:58:55.024Z,1.77
2023-05-19T10:01:26.216Z,2.10
2023-05-19T10:03:57.787Z,1.38
2023-05-19T10:06:26.518Z,1.90
2023-05-19T10:08:56.736Z,2.22
2023-05-19T10:11:25.415Z,1.30
2023-05-19T10:13:53.380Z,1.60
2023-05-19T10:16:22.892Z,1.95
2023-05-19T10:19:12.677Z,1.45
2023-05-19T10:21:43.701Z,1.42
2023-05-19T10:24:13.463Z,1.63
2023-05-19T10:26:44.245Z,1.20
2023-05-19T10:29:15.520Z,1.90
2023-05-19T10:31:53.537Z,2.42
2023-05-19T10:34:51.886Z,1.77
2023-05-19T10:40:25.565Z,1.58
2023-05-19T10:43:07.297Z,1.60
2023-05-19T10:45:43.292Z,2.83
2023-05-19T10:48:12.510Z,1.40
2023-05-19T10:50:45.423Z,1.45
2023-05-19T10:53:18.283Z,1.80
2023-05-19T10:55:51.968Z,1.27
2023-05-19T10:58:50.743Z,2.20
2023-05-19T11:01:20.691Z,1.73
2023-05-19T11:03:55.851Z,2.10
2023-05-19T11:06:29.093Z,2.88
2023-05-19T11:09:01.795Z,1.70
2023-05-19T11:11:46.159Z,1.60
2023-05-19T11:14:15.646Z,2.20
2023-05-19T11:16:46.265Z,2.22
2023-05-19T11:19:22.800Z,1.30
2023-05-19T11:21:54.866Z,1.85
2023-05-19T11:24:36.799Z,2.75
2023-05-19T11:27:27.678Z,2.38
2023-05-19T11:29:57.407Z,2.40
2023-05-19T11:32:35.784Z,1.45
2023-05-19T11:35:06.831Z,1.88
2023-05-19T11:37:35.806Z,2.20
2023-05-19T11:40:06.999Z,2.63
2023-05-19T11:42:41.924Z,1.90
2023-05-19T11:45:11.068Z,2.95
2023-05-19T11:47:57.260Z,3.70
2023-05-19T11:50:27.636Z,2.30
2023-05-19T11:52:57.622Z,1.85
2023-05-19T11:55:33.048Z,2.50
2023-05-19T11:58:06.231Z,1.45
2023-05-19T12:00:38.984Z,2.95
2023-05-19T12:03:07.830Z,2.75
2023-05-19T12:05:41.851Z,2.70
2023-05-19T12:08:13.570Z,2.05
2023-05-19T12:10:41.848Z,2.35
2023-05-19T12:13:11.311Z,3.50
2023-05-19T12:15:41.544Z,2.35
2023-05-19T12:18:09.748Z,1.98
2023-05-19T12:20:38.134Z,2.17
2023-05-19T12:23:09.303Z,1.70
2023-05-19T12:25:40.554Z,2.17
2023-05-19T12:28:08.664Z,2.00
2023-05-19T12:30:40.086Z,2.78
2023-05-19T12:33:12.213Z,2.45
2023-05-19T12:35:40.211Z,2.13
2023-05-19T12:38:08.397Z,2.15
2023-05-19T12:40:42.157Z,2.35
2023-05-19T12:43:19.666Z,2.92
2023-05-19T12:45:49.170Z,2.78
2023-05-19T12:48:17.582Z,2.30
2023-05-19T12:50:45.965Z,1.50
2023-05-19T12:53:23.022Z,2.20
2023-05-19T12:55:57.109Z,2.28
2023-05-19T12:58:27.589Z,2.97
2023-05-19T13:01:00.691Z,2.65
2023-05-19T13:03:28.921Z,1.85
2023-05-19T13:05:59.661Z,2.10
2023-05-19T13:08:27.983Z,2.20
2023-05-19T13:10:56.140Z,1.60
2023-05-19T13:13:24.100Z,2.17
2023-05-19T13:15:52.053Z,3.72
2023-05-19T13:18:24.350Z,2.40
2023-05-19T13:20:53.062Z,2.10
2023-05-19T13:23:21.317Z,2.30
2023-05-19T13:25:52.917Z,2.17
2023-05-19T13:28:26.918Z,2.90
2023-05-19T13:30:55.242Z,1.60
2023-05-19T13:33:24.659Z,1.50
2023-05-19T13:35:52.594Z,1.40
2023-05-19T13:38:20.577Z,2.40
2023-05-19T13:40:48.560Z,2.17
2023-05-19T13:43:16.489Z,2.20
2023-05-19T13:45:44.852Z,1.48
2023-05-19T13:48:13.141Z,2.10
2023-05-19T13:50:42.649Z,2.47
2023-05-19T13:53:11.554Z,2.53
2023-05-19T13:55:39.592Z,2.50
2023-05-19T13:58:07.705Z,2.03
2023-05-19T14:00:36.804Z,1.80
2023-05-19T14:03:05.209Z,2.40
2023-05-19T14:05:33.441Z,3.05
2023-05-19T14:08:03.695Z,2.35
2023-05-19T14:10:31.964Z,1.80
2023-05-19T14:15:32.464Z,1.70
2023-05-19T14:18:00.423Z,1.95
2023-05-19T14:20:32.306Z,2.08
2023-05-19T14:23:01.695Z,1.30
2023-05-19T14:25:29.622Z,2.17
2023-05-19T14:27:57.630Z,2.65
2023-05-19T14:30:25.575Z,2.17
2023-05-19T14:32:53.655Z,1.88
2023-05-19T14:35:22.621Z,1.63
2023-05-19T14:37:50.591Z,2.20
2023-05-19T14:40:22.577Z,2.72
2023-05-19T14:42:50.492Z,2.67
2023-05-19T14:45:18.480Z,2.33
2023-05-19T14:47:47.720Z,2.05
2023-05-19T14:50:16.095Z,2.50
2023-05-19T14:52:46.252Z,2.15
2023-05-19T14:55:16.787Z,1.52
2023-05-19T14:57:46.084Z,2.28
2023-05-19T15:00:15.347Z,2.60
2023-05-19T15:02:43.382Z,2.47
2023-05-19T15:05:11.741Z,2.30
2023-05-19T15:07:39.831Z,1.92
2023-05-19T15:10:08.653Z,1.80
2023-05-19T15:12:36.648Z,1.92
2023-05-19T15:15:07.117Z,2.15
2023-05-19T15:17:35.170Z,2.17
2023-05-19T15:20:03.284Z,2.75
2023-05-19T15:22:31.376Z,2.53
2023-05-19T15:24:59.340Z,1.80
2023-05-19T15:27:27.321Z,1.77
2023-05-19T15:29:55.273Z,2.17
2023-05-19T15:32:24.632Z,1.63
2023-05-19T15:34:56.606Z,1.95
2023-05-19T15:37:24.892Z,1.85
2023-05-19T15:39:52.879Z,1.77
2023-05-19T15:42:20.817Z,1.80
2023-05-19T15:44:48.721Z,1.75
2023-05-19T15:47:16.657Z,2.45
2023-05-19T15:49:46.064Z,2.50
2023-05-19T15:52:14.010Z,1.92
2023-05-19T15:54:42.172Z,2.53
2023-05-19T15:57:13.569Z,2.78
2023-05-19T15:59:41.544Z,1.70
2023-05-19T16:02:09.902Z,1.98
2023-05-19T16:04:38.041Z,2.13
2023-05-19T16:07:07.435Z,2.15
2023-05-19T16:09:35.345Z,2.35
2023-05-19T16:12:03.328Z,2.63
2023-05-19T16:14:36.270Z,1.67
2023-05-19T16:17:04.698Z,2.50
2023-05-19T16:19:32.774Z,2.38
2023-05-19T16:22:00.712Z,2.10
2023-05-19T16:24:30.039Z,1.98
2023-05-19T16:26:58.079Z,2.03
2023-05-19T16:29:26.028Z,1.77
2023-05-19T16:31:53.993Z,1.85
2023-05-19T16:34:24.470Z,1.50
2023-05-19T16:36:52.421Z,1.95
2023-05-19T16:39:20.341Z,2.30
2023-05-19T16:41:52.860Z,2.17
2023-05-19T16:44:20.802Z,2.72
2023-05-19T16:46:51.287Z,1.95
2023-05-19T16:49:20.449Z,2.72
2023-05-19T16:51:48.962Z,1.92
2023-05-19T16:54:17.288Z,1.85
2023-05-19T16:56:46.063Z,2.33
2023-05-19T16:59:17.239Z,2.20
2023-05-19T17:01:45.295Z,1.95
2023-05-19T17:04:13.257Z,2.03
2023-05-19T17:06:46.429Z,1.85
2023-05-19T17:09:15.374Z,1.42
2023-05-19T17:11:43.339Z,2.22
2023-05-19T17:14:11.304Z,3.03
2023-05-19T17:16:40.694Z,1.52
2023-05-19T17:19:08.718Z,1.50
2023-05-19T17:21:36.921Z,2.08
2023-05-19T17:24:05.020Z,2.50
2023-05-19T17:26:42.140Z,1.30
2023-05-19T17:29:10.190Z,2.45
2023-05-19T17:31:38.112Z,2.33
2023-05-19T17:34:07.483Z,2.42
2023-05-19T17:36:35.581Z,2.20
2023-05-19T17:39:05.781Z,2.25
2023-05-19T17:41:33.851Z,3.03
2023-05-19T17:44:01.927Z,2.10
2023-05-19T17:46:34.458Z,1.85
2023-05-19T17:49:05.341Z,2.20
2023-05-19T17:51:35.136Z,1.80
2023-05-19T17:54:03.685Z,2.00
2023-05-19T17:56:34.852Z,2.88
2023-05-19T17:59:03.233Z,2.95
2023-05-19T18:01:32.262Z,3.92
2023-05-19T18:04:01.359Z,3.67
2023-05-19T18:06:31.357Z,2.78
2023-05-19T18:09:02.191Z,3.03
2023-05-19T18:11:30.637Z,4.63
2023-05-19T18:13:58.680Z,3.05
2023-05-19T18:16:27.320Z,5.30
2023-05-19T18:18:55.376Z,5.53
2023-05-19T18:21:24.382Z,5.50
2023-05-19T18:23:52.435Z,4.95
2023-05-19T18:26:22.378Z,4.43
2023-05-19T18:28:50.622Z,3.63
2023-05-19T18:31:19.997Z,3.72
2023-05-19T18:33:51.194Z,3.90
2023-05-19T18:36:22.645Z,3.42
2023-05-19T18:38:51.172Z,4.22
2023-05-19T18:41:19.073Z,4.28
2023-05-19T18:43:48.559Z,3.45
2023-05-19T18:46:18.419Z,4.35
2023-05-19T18:48:46.714Z,3.30
2023-05-19T18:51:15.848Z,5.90
2023-05-19T18:53:43.828Z,5.50
2023-05-19T18:56:12.397Z,5.00
2023-05-19T19:01:34.543Z,4.88
2023-05-19T19:04:02.832Z,5.00
2023-05-19T19:06:31.251Z,6.70
2023-05-19T19:08:59.287Z,5.68
2023-05-19T19:11:27.321Z,4.30
2023-05-19T19:13:58.455Z,7.18
2023-05-19T19:16:39.099Z,5.85
2023-05-19T19:19:07.265Z,5.68
2023-05-19T19:21:37.516Z,4.97
2023-05-19T19:24:06.212Z,5.20
2023-05-19T19:26:34.190Z,4.70
2023-05-19T19:29:02.100Z,4.25
2023-05-19T19:31:43.047Z,4.82
2023-05-19T19:34:14.057Z,4.57
2023-05-19T19:36:42.039Z,4.85
2023-05-19T19:39:10.103Z,5.03
2023-05-19T19:41:38.096Z,4.35
2023-05-19T19:44:06.366Z,5.43
2023-05-19T19:46:34.397Z,5.05
2023-05-19T19:49:06.207Z,4.20
2023-05-19T19:51:34.502Z,4.03
2023-05-19T19:54:07.224Z,3.53
2023-05-19T19:56:36.709Z,3.40
2023-05-19T19:59:07.396Z,2.33
2023-05-19T20:01:35.489Z,4.93
2023-05-19T20:04:05.156Z,3.90
2023-05-19T20:06:33.310Z,3.60
2023-05-19T20:09:01.269Z,3.28
2023-05-19T20:11:32.180Z,3.97
2023-05-19T20:14:00.191Z,4.55
2023-05-19T20:16:28.227Z,3.72
2023-05-19T20:18:56.446Z,4.00
2023-05-19T20:21:25.932Z,5.18
2023-05-19T20:23:53.916Z,4.18
2023-05-19T20:26:22.417Z,3.95
2023-05-19T20:28:58.955Z,3.92
2023-05-19T20:31:27.397Z,3.05
2023-05-19T20:33:55.379Z,2.17
2023-05-19T20:36:24.756Z,3.35
2023-05-19T20:38:53.042Z,3.08
2023-05-19T20:41:20.968Z,2.60
2023-05-19T20:43:52.976Z,2.97
2023-05-19T20:46:23.756Z,3.55
2023-05-19T20:48:51.696Z,3.28
2023-05-19T20:51:25.058Z,2.92
2023-05-19T20:53:57.230Z,3.45
2023-05-19T20:56:25.309Z,5.03
2023-05-19T20:58:53.361Z,2.13
2023-05-19T21:01:21.406Z,2.55
2023-05-19T21:03:51.483Z,3.33
2023-05-19T21:06:19.545Z,2.55
2023-05-19T21:08:51.694Z,2.00
2023-05-19T21:11:21.136Z,2.70
2023-05-19T21:13:53.467Z,4.22
2023-05-19T21:16:24.172Z,2.67
2023-05-19T21:18:52.237Z,2.45
2023-05-19T21:21:22.143Z,3.83
2023-05-19T21:23:50.032Z,3.72
2023-05-19T21:26:18.228Z,2.05
2023-05-19T21:28:49.183Z,2.67
2023-05-19T21:31:17.731Z,2.60
2023-05-19T21:33:46.088Z,2.30
2023-05-19T21:36:14.055Z,2.55
2023-05-19T21:38:41.983Z,2.40
2023-05-19T21:41:09.978Z,3.20
2023-05-19T21:43:38.142Z,3.35
2023-05-19T21:46:07.516Z,2.75
2023-05-19T21:48:38.609Z,2.88
2023-05-19T21:51:07.332Z,2.58
2023-05-19T21:53:35.388Z,3.58
2023-05-19T21:56:03.303Z,2.80
2023-05-19T21:58:33.937Z,3.22
2023-05-19T22:01:07.941Z,3.25
2023-05-19T22:03:39.656Z,2.55
2023-05-19T22:06:09.060Z,2.42
2023-05-19T22:08:41.329Z,2.80
2023-05-19T22:11:11.701Z,1.65
2023-05-19T22:13:41.044Z,2.83
2023-05-19T22:16:13.011Z,2.60
2023-05-19T22:18:41.110Z,2.22
2023-05-19T22:21:11.914Z,2.65
2023-05-19T22:23:42.959Z,3.55
2023-05-19T22:26:13.663Z,3.63
2023-05-19T22:28:42.919Z,2.90
2023-05-19T22:31:16.908Z,2.90
2023-05-19T22:33:45.319Z,2.72
2023-05-19T22:36:16.303Z,3.47
2023-05-19T22:38:44.539Z,2.15
2023-05-19T22:41:21.529Z,2.17
2023-05-19T22:43:49.439Z,2.40
2023-05-19T22:46:18.872Z,2.20
2023-05-19T22:48:56.571Z,2.53
2023-05-19T22:51:24.601Z,2.63
2023-05-19T22:53:52.725Z,3.35
2023-05-19T22:56:20.916Z,2.67
2023-05-19T22:58:48.863Z,2.60
2023-05-19T23:01:18.694Z,2.75
2023-05-19T23:03:46.741Z,1.50
2023-05-19T23:06:14.772Z,2.25
2023-05-19T23:08:43.530Z,2.05
2023-05-19T23:11:12.732Z,2.45
2023-05-19T23:13:40.677Z,2.65
2023-05-19T23:16:08.644Z,3.47
2023-05-19T23:18:37.974Z,2.38
2023-05-19T23:21:05.954Z,2.28
2023-05-19T23:23:35.817Z,2.30
2023-05-19T23:26:03.928Z,2.20
2023-05-19T23:28:31.991Z,3.05
2023-05-19T23:30:59.972Z,2.13
2023-05-19T23:33:28.004Z,2.97
2023-05-19T23:35:57.348Z,1.85
2023-05-19T23:38:25.717Z,2.05
2023-05-19T23:40:53.624Z,3.03
2023-05-19T23:43:21.546Z,2.20
2023-05-19T23:45:49.525Z,2.40
2023-05-19T23:48:17.537Z,2.40
2023-05-19T23:50:46.008Z,2.20
2023-05-19T23:53:17.125Z,3.03
2023-05-19T23:55:45.932Z,1.40
2023-05-19T23:58:14.667Z,2.55
